createdAt,value
2023-04-06T00:00:56.114Z,24.35
2023-04-06T00:03:23.236Z,24.52
2023-04-06T00:05:49.841Z,24.33
2023-04-06T00:08:17.139Z,24.65
2023-04-06T00:10:43.833Z,24.60
2023-04-06T00:15:51.108Z,23.85
2023-04-06T00:18:17.699Z,24.27
2023-04-06T00:20:44.432Z,23.58
2023-04-06T00:23:11.827Z,23.90
2023-04-06T00:25:38.535Z,24.10
2023-04-06T00:28:05.166Z,23.92
2023-04-06T00:30:31.954Z,23.73
2023-04-06T00:32:58.728Z,24.25
2023-04-06T00:35:25.700Z,25.05
2023-04-06T00:37:52.409Z,24.02
2023-04-06T00:40:19.333Z,24.50
2023-04-06T00:42:46.230Z,25.17
2023-04-06T00:45:13.017Z,27.70
2023-04-06T00:47:39.900Z,28.63
2023-04-06T00:50:07.227Z,28.38
2023-04-06T00:52:43.217Z,30.98
2023-04-06T00:55:11.109Z,30.98
2023-04-06T00:57:41.991Z,30.83
2023-04-06T01:00:09.772Z,31.17
2023-04-06T01:02:37.189Z,31.50
2023-04-06T01:05:04.316Z,30.45
2023-04-06T01:07:48.057Z,31.60
2023-04-06T01:10:26.258Z,32.80
2023-04-06T01:12:58.194Z,32.00
2023-04-06T01:15:43.481Z,34.20
2023-04-06T01:18:14.476Z,34.47
2023-04-06T01:20:47.930Z,33.92
2023-04-06T01:23:16.261Z,33.90
2023-04-06T01:25:46.573Z,34.63
2023-04-06T01:28:13.430Z,33.92
2023-04-06T01:30:52.140Z,34.45
2023-04-06T01:33:45.093Z,35.47
2023-04-06T01:36:15.714Z,34.90
2023-04-06T01:38:43.814Z,34.33
2023-04-06T01:41:10.898Z,33.97
2023-04-06T01:43:51.495Z,32.67
2023-04-06T01:46:18.352Z,33.17
2023-04-06T01:48:45.777Z,33.42
2023-04-06T01:51:33.028Z,33.30
2023-04-06T01:54:02.062Z,34.17
2023-04-06T01:57:01.604Z,33.42
2023-04-06T01:59:32.335Z,33.63
2023-04-06T02:02:02.147Z,34.22
2023-04-06T02:04:30.608Z,33.47
2023-04-06T02:07:07.803Z,33.13
2023-04-06T02:09:34.565Z,34.17
2023-04-06T02:12:02.501Z,33.28
2023-04-06T02:14:31.878Z,33.60
2023-04-06T02:17:02.541Z,32.63
2023-04-06T02:19:29.321Z,33.80
2023-04-06T02:21:56.085Z,32.90
2023-04-06T02:24:23.475Z,34.05
2023-04-06T02:26:50.229Z,34.65
2023-04-06T02:29:17.198Z,32.92
2023-04-06T02:31:43.871Z,31.20
2023-04-06T02:34:13.123Z,33.35
2023-04-06T02:36:45.837Z,33.00
2023-04-06T02:39:14.639Z,31.60
2023-04-06T02:41:41.597Z,29.85
2023-04-06T02:44:09.933Z,30.13
2023-04-06T02:46:42.916Z,28.00
2023-04-06T02:49:09.999Z,29.00
2023-04-06T02:51:37.264Z,29.48
2023-04-06T02:54:15.567Z,30.15
2023-04-06T02:56:42.620Z,31.05
2023-04-06T02:59:09.908Z,29.60
2023-04-06T03:01:37.548Z,29.25
2023-04-06T03:04:06.133Z,28.27
2023-04-06T03:06:33.168Z,26.45
2023-04-06T03:09:09.770Z,25.75
2023-04-06T03:11:37.138Z,25.75
2023-04-06T03:14:03.716Z,26.30
2023-04-06T03:16:30.744Z,25.13
2023-04-06T03:19:02.514Z,23.95
2023-04-06T03:21:32.629Z,23.70
2023-04-06T03:23:59.734Z,25.08
2023-04-06T03:26:27.492Z,23.77
2023-04-06T03:28:54.392Z,22.13
2023-04-06T03:31:26.457Z,23.25
2023-04-06T03:33:58.392Z,24.40
2023-04-06T03:36:29.946Z,23.25
2023-04-06T03:38:57.729Z,23.02
2023-04-06T03:41:24.585Z,24.83
2023-04-06T03:44:14.253Z,24.58
2023-04-06T03:46:41.014Z,22.92
2023-04-06T03:49:08.542Z,23.00
2023-04-06T03:51:35.833Z,23.58
2023-04-06T03:54:02.747Z,23.25
2023-04-06T03:56:29.575Z,21.10
2023-04-06T03:58:56.450Z,20.92
2023-04-06T04:01:23.508Z,22.02
2023-04-06T04:03:51.811Z,22.73
2023-04-06T04:08:59.285Z,21.15
2023-04-06T04:11:29.700Z,21.27
2023-04-06T04:13:59.793Z,22.85
2023-04-06T04:16:26.680Z,22.05
2023-04-06T04:18:53.486Z,21.20
2023-04-06T04:21:20.359Z,21.17
2023-04-06T04:23:47.542Z,21.08
2023-04-06T04:26:14.337Z,23.08
2023-04-06T04:28:44.997Z,20.60
2023-04-06T04:31:11.931Z,21.48
2023-04-06T04:33:39.700Z,21.10
2023-04-06T04:36:12.228Z,21.60
2023-04-06T04:38:43.368Z,20.33
2023-04-06T04:41:11.142Z,20.75
2023-04-06T04:43:40.438Z,20.45
2023-04-06T04:46:08.065Z,22.02
2023-04-06T04:48:40.701Z,22.42
2023-04-06T04:51:08.414Z,21.55
2023-04-06T04:53:54.441Z,21.58
2023-04-06T04:56:25.440Z,19.30
2023-04-06T04:58:57.737Z,20.77
2023-04-06T05:01:47.359Z,19.95
2023-04-06T05:04:21.934Z,20.33
2023-04-06T05:06:49.164Z,20.55
2023-04-06T05:09:16.665Z,21.88
2023-04-06T05:11:44.056Z,20.83
2023-04-06T05:14:11.006Z,19.92
2023-04-06T05:16:37.905Z,20.00
2023-04-06T05:19:05.172Z,18.98
2023-04-06T05:21:39.592Z,17.45
2023-04-06T05:24:08.185Z,16.75
2023-04-06T05:26:35.027Z,15.73
2023-04-06T05:29:07.888Z,16.63
2023-04-06T05:31:37.532Z,16.77
2023-04-06T05:34:04.575Z,16.25
2023-04-06T05:36:34.835Z,14.55
2023-04-06T05:39:07.157Z,15.13
2023-04-06T05:41:48.333Z,13.88
2023-04-06T05:44:16.978Z,16.00
2023-04-06T05:46:48.742Z,13.77
2023-04-06T05:49:17.154Z,13.57
2023-04-06T05:51:44.271Z,13.18
2023-04-06T05:54:11.556Z,13.73
2023-04-06T05:56:38.518Z,13.35
2023-04-06T05:59:10.932Z,12.65
2023-04-06T06:01:38.314Z,11.20
2023-04-06T06:04:07.016Z,10.15
2023-04-06T06:06:37.195Z,11.50
2023-04-06T06:09:27.195Z,11.10
2023-04-06T06:12:10.165Z,11.40
2023-04-06T06:14:38.263Z,10.70
2023-04-06T06:17:04.951Z,10.20
2023-04-06T06:19:32.908Z,10.75
2023-04-06T06:22:03.899Z,9.40
2023-04-06T06:24:32.505Z,9.00
2023-04-06T06:27:00.628Z,8.30
2023-04-06T06:29:30.355Z,8.60
2023-04-06T06:31:57.378Z,7.75
2023-04-06T06:34:26.931Z,8.00
2023-04-06T06:36:58.973Z,6.93
2023-04-06T06:39:26.199Z,6.15
2023-04-06T06:41:53.475Z,6.38
2023-04-06T06:44:28.154Z,6.78
2023-04-06T06:46:55.224Z,7.13
2023-04-06T06:49:22.261Z,6.00
2023-04-06T06:51:49.271Z,6.93
2023-04-06T06:54:15.898Z,6.78
2023-04-06T06:56:43.119Z,5.85
2023-04-06T06:59:10.081Z,7.38
2023-04-06T07:01:38.128Z,6.18
2023-04-06T07:04:08.096Z,6.30
2023-04-06T07:06:47.263Z,6.45
2023-04-06T07:09:14.502Z,7.63
2023-04-06T07:11:45.329Z,7.13
2023-04-06T07:14:12.804Z,7.28
2023-04-06T07:16:39.533Z,8.30
2023-04-06T07:19:06.303Z,8.15
2023-04-06T07:21:33.323Z,7.95
2023-04-06T07:24:00.402Z,8.27
2023-04-06T07:26:27.559Z,7.88
2023-04-06T07:28:54.337Z,7.63
2023-04-06T07:31:24.118Z,7.60
2023-04-06T07:33:51.219Z,7.40
2023-04-06T07:36:21.142Z,7.60
2023-04-06T07:38:48.797Z,7.72
2023-04-06T07:41:16.199Z,7.68
2023-04-06T07:43:43.445Z,7.85
2023-04-06T07:46:10.438Z,8.13
2023-04-06T07:48:38.929Z,7.68
2023-04-06T07:51:08.125Z,7.60
2023-04-06T07:53:38.828Z,7.97
2023-04-06T07:56:05.719Z,8.00
2023-04-06T07:58:32.669Z,7.65
2023-04-06T08:00:59.793Z,7.55
2023-04-06T08:03:28.774Z,7.03
2023-04-06T08:05:56.517Z,7.30
2023-04-06T08:08:23.905Z,7.47
2023-04-06T08:10:50.842Z,7.43
2023-04-06T08:13:17.841Z,7.55
2023-04-06T08:15:45.686Z,6.88
2023-04-06T08:18:12.527Z,7.07
2023-04-06T08:20:41.242Z,7.60
2023-04-06T08:23:10.389Z,7.95
2023-04-06T08:25:37.171Z,7.30
2023-04-06T08:28:10.529Z,7.18
2023-04-06T08:30:38.444Z,7.88
2023-04-06T08:33:05.420Z,8.25
2023-04-06T08:35:32.227Z,9.27
2023-04-06T08:37:59.329Z,7.88
2023-04-06T08:40:26.534Z,8.00
2023-04-06T08:42:57.579Z,9.05
2023-04-06T08:45:24.396Z,8.23
2023-04-06T08:47:51.800Z,8.90
2023-04-06T08:50:19.462Z,8.30
2023-04-06T08:52:48.374Z,9.13
2023-04-06T08:55:16.411Z,7.88
2023-04-06T08:57:43.594Z,8.93
2023-04-06T09:00:11.508Z,7.95
2023-04-06T09:02:44.603Z,9.18
2023-04-06T09:05:14.004Z,7.88
2023-04-06T09:07:42.324Z,7.97
2023-04-06T09:10:09.321Z,8.70
2023-04-06T09:12:36.543Z,8.13
2023-04-06T09:15:04.992Z,8.45
2023-04-06T09:17:36.121Z,9.07
2023-04-06T09:20:09.796Z,8.00
2023-04-06T09:22:38.055Z,9.27
2023-04-06T09:25:05.887Z,8.50
2023-04-06T09:27:33.497Z,8.57
2023-04-06T09:30:07.189Z,9.07
2023-04-06T09:32:34.430Z,9.13
2023-04-06T09:35:08.312Z,9.18
2023-04-06T09:37:35.495Z,9.53
2023-04-06T09:40:06.502Z,8.93
2023-04-06T09:42:37.465Z,9.02
2023-04-06T09:45:04.916Z,9.52
2023-04-06T09:47:32.563Z,8.85
2023-04-06T09:50:00.219Z,9.93
2023-04-06T09:52:34.670Z,10.68
2023-04-06T09:55:05.014Z,10.30
2023-04-06T09:57:54.339Z,9.75
2023-04-06T10:00:23.053Z,10.65
2023-04-06T10:02:56.055Z,10.82
2023-04-06T10:05:23.070Z,10.60
2023-04-06T10:08:00.760Z,11.65
2023-04-06T10:10:29.246Z,11.20
2023-04-06T10:12:57.194Z,11.45
2023-04-06T10:15:24.285Z,11.20
2023-04-06T10:17:51.136Z,12.82
2023-04-06T10:20:26.705Z,11.48
2023-04-06T10:22:59.504Z,11.45
2023-04-06T10:25:29.952Z,11.52
2023-04-06T10:28:01.285Z,11.50
2023-04-06T10:30:30.913Z,11.65
2023-04-06T10:32:58.486Z,11.45
2023-04-06T10:35:40.025Z,11.05
2023-04-06T10:38:07.365Z,11.95
2023-04-06T10:40:37.403Z,10.98
2023-04-06T10:43:14.603Z,10.27
2023-04-06T10:45:42.064Z,10.55
2023-04-06T10:48:20.964Z,11.10
2023-04-06T10:50:56.645Z,10.32
2023-04-06T10:53:25.044Z,9.98
2023-04-06T10:55:53.260Z,10.60
2023-04-06T10:58:20.053Z,9.30
2023-04-06T11:00:50.727Z,9.55
2023-04-06T11:03:19.364Z,11.15
2023-04-06T11:05:53.759Z,10.40
2023-04-06T11:08:31.074Z,9.80
2023-04-06T11:11:07.758Z,9.55
2023-04-06T11:13:41.831Z,9.52
2023-04-06T11:16:13.241Z,8.20
2023-04-06T11:18:55.834Z,9.30
2023-04-06T11:21:38.896Z,8.48
2023-04-06T11:24:09.831Z,8.18
2023-04-06T11:26:55.958Z,8.23
2023-04-06T11:29:23.907Z,7.68
2023-04-06T11:31:52.151Z,7.95
2023-04-06T11:34:20.594Z,6.68
2023-04-06T11:36:48.873Z,6.90
2023-04-06T11:39:20.721Z,6.10
2023-04-06T11:41:59.616Z,6.20
2023-04-06T11:47:32.070Z,5.88
2023-04-06T11:50:07.573Z,5.75
2023-04-06T11:52:34.545Z,6.20
2023-04-06T11:55:12.028Z,6.18
2023-04-06T11:57:39.453Z,5.60
2023-04-06T12:00:07.685Z,5.70
2023-04-06T12:02:36.641Z,5.32
2023-04-06T12:05:03.733Z,5.38
2023-04-06T12:07:31.462Z,5.28
2023-04-06T12:09:58.170Z,5.15
2023-04-06T12:12:25.663Z,5.40
2023-04-06T12:14:52.423Z,5.30
2023-04-06T12:17:20.360Z,5.18
2023-04-06T12:19:47.105Z,5.10
2023-04-06T12:22:13.840Z,5.05
2023-04-06T12:24:40.833Z,4.90
2023-04-06T12:27:12.718Z,5.13
2023-04-06T12:29:39.568Z,4.85
2023-04-06T12:32:07.282Z,5.15
2023-04-06T12:34:34.300Z,5.45
2023-04-06T12:37:01.337Z,6.28
2023-04-06T12:39:31.741Z,5.57
2023-04-06T12:41:59.136Z,7.28
2023-04-06T12:44:27.038Z,6.45
2023-04-06T12:46:54.999Z,6.65
2023-04-06T12:49:22.939Z,6.95
2023-04-06T12:51:49.836Z,6.65
2023-04-06T12:54:17.656Z,6.90
2023-04-06T12:56:45.492Z,6.80
2023-04-06T12:59:13.726Z,6.57
2023-04-06T13:01:40.635Z,6.68
2023-04-06T13:04:07.591Z,7.75
2023-04-06T13:06:35.212Z,8.18
2023-04-06T13:09:02.355Z,8.15
2023-04-06T13:11:29.598Z,8.23
2023-04-06T13:13:56.509Z,9.07
2023-04-06T13:16:23.374Z,8.98
2023-04-06T13:18:50.611Z,9.15
2023-04-06T13:21:17.643Z,9.55
2023-04-06T13:23:45.513Z,10.02
2023-04-06T13:26:12.252Z,10.02
2023-04-06T13:28:42.637Z,10.05
2023-04-06T13:31:14.935Z,9.93
2023-04-06T13:33:42.437Z,9.88
2023-04-06T13:36:10.102Z,11.10
2023-04-06T13:38:40.246Z,10.00
2023-04-06T13:41:07.088Z,10.63
2023-04-06T13:43:33.725Z,11.38
2023-04-06T13:46:02.431Z,10.02
2023-04-06T13:48:29.144Z,10.48
2023-04-06T13:50:56.105Z,10.27
2023-04-06T13:53:22.935Z,10.90
2023-04-06T13:55:56.652Z,11.77
2023-04-06T13:58:23.921Z,9.88
2023-04-06T14:00:51.059Z,10.65
2023-04-06T14:03:18.370Z,10.60
2023-04-06T14:05:46.056Z,10.93
2023-04-06T14:08:13.750Z,10.23
2023-04-06T14:10:44.469Z,10.43
2023-04-06T14:13:11.661Z,10.43
2023-04-06T14:15:38.727Z,9.38
2023-04-06T14:18:05.873Z,10.25
2023-04-06T14:20:33.565Z,9.38
2023-04-06T14:23:03.981Z,10.43
2023-04-06T14:25:33.166Z,10.43
2023-04-06T14:27:59.965Z,11.07
2023-04-06T14:30:26.720Z,11.55
2023-04-06T14:32:54.221Z,10.82
2023-04-06T14:35:20.927Z,9.82
2023-04-06T14:37:48.323Z,9.43
2023-04-06T14:40:15.146Z,10.20
2023-04-06T14:42:41.968Z,9.95
2023-04-06T14:45:09.489Z,10.05
2023-04-06T14:47:36.428Z,9.27
2023-04-06T14:50:03.329Z,9.25
2023-04-06T14:52:31.983Z,6.78
2023-04-06T14:54:59.219Z,4.97
2023-04-06T14:57:26.161Z,3.70
2023-04-06T14:59:54.263Z,2.58
2023-04-06T15:02:21.116Z,2.33
2023-04-06T15:04:47.970Z,2.25
2023-04-06T15:07:14.687Z,2.00
2023-04-06T15:09:41.760Z,2.20
2023-04-06T15:12:08.509Z,2.80
2023-04-06T15:14:35.070Z,3.60
2023-04-06T15:17:01.668Z,3.22
2023-04-06T15:19:28.326Z,3.45
2023-04-06T15:21:55.533Z,3.15
2023-04-06T15:24:22.602Z,3.83
2023-04-06T15:26:49.457Z,3.17
2023-04-06T15:29:16.044Z,3.55
2023-04-06T15:31:42.692Z,3.08
2023-04-06T15:34:10.151Z,3.35
2023-04-06T15:36:37.100Z,4.60
2023-04-06T15:39:04.667Z,3.70
2023-04-06T15:41:31.690Z,3.72
2023-04-06T15:43:58.331Z,3.67
2023-04-06T15:46:27.116Z,3.38
2023-04-06T15:48:54.720Z,3.70
2023-04-06T15:51:21.466Z,4.90
2023-04-06T15:53:48.357Z,3.97
2023-04-06T15:56:15.508Z,4.20
2023-04-06T15:58:42.183Z,5.22
2023-04-06T16:01:12.577Z,5.55
2023-04-06T16:03:39.481Z,4.53
2023-04-06T16:06:08.942Z,4.13
2023-04-06T16:08:37.049Z,5.85
2023-04-06T16:11:04.406Z,4.85
2023-04-06T16:13:31.637Z,4.88
2023-04-06T16:15:58.469Z,5.15
2023-04-06T16:18:25.297Z,4.93
2023-04-06T16:20:52.101Z,4.50
2023-04-06T16:23:19.020Z,5.20
2023-04-06T16:25:48.680Z,4.30
2023-04-06T16:28:15.942Z,4.45
2023-04-06T16:30:45.714Z,5.05
2023-04-06T16:33:13.937Z,5.00
2023-04-06T16:35:47.066Z,5.65
2023-04-06T16:38:13.984Z,5.32
2023-04-06T16:40:40.722Z,3.97
2023-04-06T16:43:07.411Z,4.38
2023-04-06T16:45:34.355Z,4.80
2023-04-06T16:48:01.259Z,4.72
2023-04-06T16:50:28.322Z,5.30
2023-04-06T16:52:55.299Z,5.60
2023-04-06T16:55:21.927Z,4.45
2023-04-06T16:57:49.506Z,4.20
2023-04-06T17:00:17.626Z,5.03
2023-04-06T17:02:47.021Z,4.63
2023-04-06T17:05:14.220Z,4.80
2023-04-06T17:07:41.307Z,5.25
2023-04-06T17:10:08.555Z,5.03
2023-04-06T17:12:35.634Z,4.75
2023-04-06T17:15:02.278Z,6.28
2023-04-06T17:17:29.345Z,5.47
2023-04-06T17:19:56.124Z,4.20
2023-04-06T17:22:22.700Z,4.70
2023-04-06T17:24:49.506Z,4.47
2023-04-06T17:27:16.333Z,4.25
2023-04-06T17:29:42.998Z,4.80
2023-04-06T17:32:11.866Z,4.35
2023-04-06T17:34:38.560Z,4.97
2023-04-06T17:37:05.976Z,4.50
2023-04-06T17:39:32.826Z,3.78
2023-04-06T17:42:00.220Z,3.72
2023-04-06T17:44:26.898Z,3.88
2023-04-06T17:46:57.748Z,4.35
2023-04-06T17:49:24.410Z,4.07
2023-04-06T17:51:51.056Z,4.18
2023-04-06T17:54:17.635Z,3.13
2023-04-06T17:56:44.401Z,3.65
2023-04-06T17:59:11.682Z,3.63
2023-04-06T18:01:39.415Z,4.18
2023-04-06T18:04:06.640Z,3.40
2023-04-06T18:06:33.450Z,4.13
2023-04-06T18:09:00.543Z,3.60
2023-04-06T18:11:29.576Z,3.15
2023-04-06T18:13:56.848Z,2.85
2023-04-06T18:16:23.592Z,3.28
2023-04-06T18:18:50.534Z,2.75
2023-04-06T18:21:17.363Z,3.10
2023-04-06T18:23:44.240Z,2.65
2023-04-06T18:26:16.381Z,2.97
2023-04-06T18:28:43.168Z,2.63
2023-04-06T18:31:09.752Z,2.40
2023-04-06T18:33:36.472Z,2.63
2023-04-06T18:36:03.009Z,2.90
2023-04-06T18:38:29.673Z,2.50
2023-04-06T18:43:41.244Z,3.28
2023-04-06T18:46:14.834Z,2.67
2023-04-06T18:48:41.903Z,2.80
2023-04-06T18:51:08.919Z,2.80
2023-04-06T18:53:37.918Z,2.60
2023-04-06T18:56:13.135Z,2.35
2023-04-06T18:58:42.487Z,2.60
2023-04-06T19:01:09.117Z,2.95
2023-04-06T19:03:36.794Z,2.88
2023-04-06T19:06:07.840Z,2.40
2023-04-06T19:08:34.444Z,2.47
2023-04-06T19:11:05.352Z,2.40
2023-04-06T19:13:32.535Z,2.80
2023-04-06T19:15:59.067Z,3.28
2023-04-06T19:18:25.884Z,3.20
2023-04-06T19:20:52.996Z,3.25
2023-04-06T19:23:20.280Z,3.20
2023-04-06T19:25:46.911Z,3.10
2023-04-06T19:28:15.601Z,3.60
2023-04-06T19:30:43.306Z,3.17
2023-04-06T19:33:10.260Z,2.88
2023-04-06T19:35:36.969Z,2.80
2023-04-06T19:38:03.597Z,3.15
2023-04-06T19:40:30.197Z,3.05
2023-04-06T19:42:56.956Z,2.80
2023-04-06T19:45:23.755Z,3.10
2023-04-06T19:47:50.586Z,7.30
2023-04-06T19:50:19.323Z,10.95
2023-04-06T19:52:45.973Z,7.30
2023-04-06T19:55:12.473Z,5.65
2023-04-06T19:57:39.842Z,5.40
2023-04-06T20:00:06.920Z,5.78
2023-04-06T20:02:36.341Z,4.95
2023-04-06T20:05:03.866Z,5.25
2023-04-06T20:07:30.869Z,5.07
2023-04-06T20:09:57.832Z,5.05
2023-04-06T20:12:24.463Z,5.43
2023-04-06T20:14:51.307Z,6.55
2023-04-06T20:17:17.960Z,5.63
2023-04-06T20:19:44.609Z,4.65
2023-04-06T20:22:11.324Z,5.13
2023-04-06T20:24:47.253Z,4.07
2023-04-06T20:27:14.125Z,3.67
2023-04-06T20:29:41.108Z,4.80
2023-04-06T20:32:07.922Z,4.13
2023-04-06T20:34:35.176Z,4.90
2023-04-06T20:37:02.937Z,5.45
2023-04-06T20:39:30.801Z,4.90
2023-04-06T20:42:01.453Z,5.63
2023-04-06T20:44:28.647Z,5.00
2023-04-06T20:46:55.590Z,4.63
2023-04-06T20:49:24.203Z,4.35
2023-04-06T20:51:53.442Z,5.25
2023-04-06T20:54:20.200Z,4.57
2023-04-06T20:56:47.013Z,4.45
2023-04-06T20:59:13.888Z,3.90
2023-04-06T21:01:41.281Z,4.00
2023-04-06T21:04:11.512Z,4.35
2023-04-06T21:06:38.322Z,3.97
2023-04-06T21:09:04.814Z,4.43
2023-04-06T21:11:31.953Z,3.58
2023-04-06T21:13:58.615Z,3.35
2023-04-06T21:16:25.856Z,3.00
2023-04-06T21:18:52.678Z,2.78
2023-04-06T21:21:21.470Z,3.10
2023-04-06T21:23:48.487Z,2.88
2023-04-06T21:26:15.747Z,3.30
2023-04-06T21:28:42.252Z,2.63
2023-04-06T21:31:09.052Z,3.53
2023-04-06T21:33:36.373Z,3.15
2023-04-06T21:36:06.614Z,3.20
2023-04-06T21:38:35.075Z,3.47
2023-04-06T21:41:02.068Z,2.92
2023-04-06T21:43:29.677Z,3.42
2023-04-06T21:45:56.650Z,3.50
2023-04-06T21:48:23.743Z,3.85
2023-04-06T21:50:50.346Z,4.13
2023-04-06T21:53:18.763Z,11.02
2023-04-06T21:55:45.716Z,9.02
2023-04-06T21:58:13.132Z,5.70
2023-04-06T22:00:39.796Z,5.15
2023-04-06T22:03:07.115Z,4.50
2023-04-06T22:05:34.331Z,5.63
2023-04-06T22:08:03.716Z,7.63
2023-04-06T22:10:30.582Z,4.85
2023-04-06T22:12:57.338Z,4.70
2023-04-06T22:15:23.944Z,4.93
2023-04-06T22:17:50.679Z,4.97
2023-04-06T22:20:17.534Z,5.32
2023-04-06T22:22:44.113Z,5.13
2023-04-06T22:25:10.698Z,5.43
2023-04-06T22:27:37.638Z,4.85
2023-04-06T22:30:05.007Z,4.68
2023-04-06T22:32:31.821Z,4.70
2023-04-06T22:34:58.756Z,4.30
2023-04-06T22:37:25.414Z,4.28
2023-04-06T22:39:52.044Z,4.40
2023-04-06T22:42:19.331Z,2.80
2023-04-06T22:44:46.313Z,2.55
2023-04-06T22:47:13.152Z,2.15
2023-04-06T22:49:39.829Z,2.08
2023-04-06T22:52:06.461Z,2.28
2023-04-06T22:54:33.157Z,1.95
2023-04-06T22:57:00.203Z,2.20
2023-04-06T22:59:26.892Z,1.95
2023-04-06T23:01:53.573Z,2.40
2023-04-06T23:04:20.864Z,2.35
2023-04-06T23:06:47.828Z,2.22
2023-04-06T23:09:14.716Z,2.30
2023-04-06T23:11:41.470Z,2.30
2023-04-06T23:14:08.036Z,2.20
2023-04-06T23:16:35.103Z,2.78
2023-04-06T23:19:03.542Z,2.35
2023-04-06T23:21:31.970Z,2.40
2023-04-06T23:24:00.211Z,2.33
2023-04-06T23:26:27.279Z,2.72
2023-04-06T23:28:53.912Z,3.38
2023-04-06T23:31:20.820Z,2.95
2023-04-06T23:33:47.352Z,3.83
2023-04-06T23:36:14.017Z,2.88
2023-04-06T23:38:40.783Z,2.63
2023-04-06T23:41:07.322Z,3.95
2023-04-06T23:43:33.919Z,2.70
2023-04-06T23:46:00.889Z,2.75
2023-04-06T23:48:28.414Z,3.05
2023-04-06T23:50:54.915Z,2.78
2023-04-06T23:53:21.918Z,3.38
2023-04-06T23:55:48.642Z,3.03
2023-04-06T23:58:15.194Z,3.15
